Time;durP1;ratioP1;P1;durP2;ratioP2;P2;SDS_P1;SDS_P2;PMS_P1;PMS_P2;Temp;Humidity;BMP_temperature;BMP_pressure;BME280_temperature;BME280_humidity;BME280_pressure;Samples;Min_cycle;Max_cycle;Signal;HPM_P1;HPM_P2
2021/05/02 00:01:36;;;;;;;0.68;0.20;;;22.60;35.20;;;;;;5041224;28;20040;-50
2021/05/02 00:04:03;;;;;;;0.95;0.10;;;22.60;35.20;;;;;;5046007;28;20082;-49
2021/05/02 00:06:30;;;;;;;0.63;0.30;;;22.60;35.20;;;;;;5043653;28;20030;-49
2021/05/02 00:08:56;;;;;;;0.68;0.20;;;22.60;35.20;;;;;;5042559;28;20036;-48
2021/05/02 00:11:21;;;;;;;0.35;0.10;;;22.60;35.20;;;;;;5034132;28;20140;-49
2021/05/02 00:13:47;;;;;;;0.82;0.30;;;22.60;35.20;;;;;;5040559;28;20216;-50
2021/05/02 00:16:13;;;;;;;0.60;0.25;;;22.60;35.20;;;;;;5050937;28;20103;-50
2021/05/02 00:18:39;;;;;;;0.60;0.38;;;22.60;35.20;;;;;;5047727;28;20033;-47
2021/05/02 00:21:09;;;;;;;0.50;0.20;;;22.50;35.20;;;;;;5049380;28;20443;-49
2021/05/02 00:23:37;;;;;;;0.85;0.30;;;22.60;35.20;;;;;;5053122;28;20025;-49
2021/05/02 00:26:04;;;;;;;1.95;0.20;;;22.60;35.20;;;;;;5041026;28;20064;-49
2021/05/02 00:28:31;;;;;;;0.40;0.20;;;22.50;35.70;;;;;;5052095;28;20033;-50
2021/05/02 00:30:58;;;;;;;0.55;0.10;;;22.50;35.10;;;;;;5047396;28;20033;-48
2021/05/02 00:33:24;;;;;;;0.43;0.20;;;22.50;35.10;;;;;;5045702;28;20021;-48
2021/05/02 00:35:51;;;;;;;0.50;0.15;;;22.50;35.20;;;;;;5049919;28;20047;-49
2021/05/02 00:38:16;;;;;;;0.60;0.20;;;22.50;35.20;;;;;;5051020;28;20033;-48
2021/05/02 00:40:43;;;;;;;0.60;0.20;;;22.50;35.20;;;;;;5045991;28;20036;-49
2021/05/02 00:43:12;;;;;;;0.47;0.10;;;22.50;35.20;;;;;;5047782;28;20525;-49
2021/05/02 00:46:01;;;;;;;0.40;0.20;;;22.50;35.20;;;;;;5047729;28;20033;-48
2021/05/02 00:48:36;;;;;;;0.68;0.20;;;22.50;35.20;;;;;;5049585;28;20567;-48
2021/05/02 00:51:04;;;;;;;0.60;0.30;;;22.50;35.20;;;;;;5045232;28;20033;-46
2021/05/02 00:53:53;;;;;;;0.40;0.20;;;22.50;35.20;;;;;;5049935;28;20104;-49
2021/05/02 00:56:28;;;;;;;2.15;0.28;;;22.50;35.20;;;;;;5036446;28;20033;-49
2021/05/02 00:59:01;;;;;;;0.65;0.20;;;22.50;35.20;;;;;;5049472;28;20029;-47
2021/05/02 01:01:49;;;;;;;0.75;0.20;;;22.40;35.10;;;;;;5045465;28;20025;-47
2021/05/02 01:04:21;;;;;;;1.98;0.20;;;22.40;35.20;;;;;;5050408;28;20128;-47
2021/05/02 01:06:50;;;;;;;0.63;0.20;;;22.40;35.10;;;;;;5050682;28;20044;-49
2021/05/02 01:09:17;;;;;;;0.95;0.20;;;22.40;35.10;;;;;;5040750;28;20030;-47
2021/05/02 01:11:46;;;;;;;0.75;0.30;;;22.40;35.10;;;;;;5041849;28;20110;-49
2021/05/02 01:14:13;;;;;;;0.30;0.10;;;22.40;35.10;;;;;;5046897;28;20052;-49
2021/05/02 01:16:40;;;;;;;0.40;0.10;;;22.40;35.20;;;;;;5044196;28;20127;-47
2021/05/02 01:19:10;;;;;;;0.40;0.20;;;22.40;35.10;;;;;;5049229;28;20057;-49
2021/05/02 01:21:38;;;;;;;0.85;0.20;;;22.40;35.10;;;;;;5050055;28;20025;-48
2021/05/02 01:24:08;;;;;;;0.60;0.20;;;22.40;35.10;;;;;;5043743;28;20037;-50
2021/05/02 01:26:38;;;;;;;0.40;0.10;;;22.30;35.10;;;;;;5044128;28;20056;-48
2021/05/02 01:29:04;;;;;;;0.75;0.20;;;22.40;35.10;;;;;;5045258;28;20517;-48
2021/05/02 01:31:31;;;;;;;0.90;0.20;;;22.40;35.10;;;;;;5042028;28;20065;-48
2021/05/02 01:33:57;;;;;;;0.40;0.20;;;22.30;35.00;;;;;;5047615;28;20055;-47
2021/05/02 01:36:23;;;;;;;0.70;0.20;;;22.30;35.10;;;;;;5040845;28;20546;-48
2021/05/02 01:38:50;;;;;;;0.70;0.30;;;22.30;35.10;;;;;;5026562;23;20085;-47
2021/05/02 01:41:16;;;;;;;0.32;0.10;;;22.30;35.10;;;;;;5010464;28;20021;-47
2021/05/02 01:43:42;;;;;;;0.35;0.20;;;22.30;35.00;;;;;;5008461;28;20439;-46
2021/05/02 01:46:08;;;;;;;0.57;0.10;;;22.30;35.00;;;;;;5006945;28;20080;-45
2021/05/02 01:48:37;;;;;;;0.40;0.10;;;22.30;35.00;;;;;;5008442;28;20060;-45
2021/05/02 01:51:04;;;;;;;0.40;0.10;;;22.30;35.00;;;;;;5006858;28;20021;-43
2021/05/02 01:53:31;;;;;;;0.50;0.20;;;22.30;35.00;;;;;;5008762;28;20101;-47
2021/05/02 01:56:00;;;;;;;1.08;0.20;;;22.30;35.00;;;;;;5007185;28;20022;-45
2021/05/02 01:58:26;;;;;;;0.35;0.10;;;22.30;35.00;;;;;;5014360;28;20037;-46
2021/05/02 02:01:06;;;;;;;0.32;0.10;;;22.30;35.00;;;;;;5015053;28;20065;-48
2021/05/02 02:03:32;;;;;;;0.50;0.25;;;22.30;35.00;;;;;;5014552;28;20033;-47
2021/05/02 02:05:58;;;;;;;0.40;0.20;;;22.30;35.00;;;;;;5011862;28;20101;-46
2021/05/02 02:08:24;;;;;;;0.40;0.10;;;22.30;35.00;;;;;;5008429;28;20058;-48
2021/05/02 02:10:51;;;;;;;1.17;0.20;;;22.30;35.00;;;;;;5012342;28;20045;-47
2021/05/02 02:13:18;;;;;;;0.77;0.20;;;22.30;35.00;;;;;;5010313;28;20022;-47
2021/05/02 02:15:45;;;;;;;0.60;0.20;;;22.30;35.00;;;;;;5012665;28;20025;-46
2021/05/02 02:18:12;;;;;;;0.57;0.30;;;22.30;35.00;;;;;;5012377;28;20053;-46
2021/05/02 02:20:45;;;;;;;0.35;0.10;;;22.30;35.00;;;;;;5012401;28;20107;-47
2021/05/02 02:23:21;;;;;;;0.50;0.20;;;22.30;35.00;;;;;;5012662;28;20034;-46
2021/05/02 02:25:48;;;;;;;0.30;0.13;;;22.30;35.00;;;;;;5011654;28;20061;-46
2021/05/02 02:28:19;;;;;;;0.50;0.20;;;22.30;35.00;;;;;;5012894;28;20061;-45
2021/05/02 02:30:47;;;;;;;0.30;0.10;;;22.30;35.00;;;;;;5012202;28;20108;-45
2021/05/02 02:33:14;;;;;;;0.50;0.10;;;22.30;35.00;;;;;;5012538;28;20022;-47
2021/05/02 02:35:53;;;;;;;0.65;0.10;;;22.30;35.00;;;;;;5011634;28;20026;-46
2021/05/02 02:38:21;;;;;;;0.45;0.20;;;22.20;35.00;;;;;;5010503;28;20080;-46
2021/05/02 02:40:50;;;;;;;1.05;0.10;;;22.30;35.00;;;;;;5011799;28;20458;-46
2021/05/02 02:43:25;;;;;;;0.63;0.10;;;22.30;35.00;;;;;;5010906;28;20573;-51
2021/05/02 02:45:55;;;;;;;0.80;0.20;;;22.30;35.00;;;;;;5012564;28;20033;-49
2021/05/02 02:48:27;;;;;;;0.45;0.20;;;22.30;35.50;;;;;;5004950;28;20038;-47
2021/05/02 02:50:56;;;;;;;0.50;0.10;;;22.30;35.50;;;;;;5012260;28;20061;-46
2021/05/02 02:53:22;;;;;;;0.30;0.10;;;22.20;34.90;;;;;;5010923;28;20491;-47
2021/05/02 02:56:05;;;;;;;0.32;0.10;;;22.20;35.00;;;;;;5011544;28;20036;-49
2021/05/02 02:58:44;;;;;;;0.30;0.10;;;22.20;35.00;;;;;;5012106;28;20037;-44
2021/05/02 03:01:12;;;;;;;0.60;0.10;;;22.20;35.50;;;;;;5010979;28;20034;-47
2021/05/02 03:03:41;;;;;;;0.40;0.10;;;22.20;35.00;;;;;;5012094;28;20507;-46
2021/05/02 03:06:07;;;;;;;0.40;0.20;;;22.20;35.00;;;;;;5010301;28;20045;-44
2021/05/02 03:08:38;;;;;;;2.03;0.20;;;22.20;35.00;;;;;;5012072;28;20044;-46
2021/05/02 03:11:04;;;;;;;0.55;0.15;;;22.20;35.00;;;;;;5011043;28;20487;-48
2021/05/02 03:13:30;;;;;;;1.13;0.20;;;22.20;35.00;;;;;;5011228;28;20109;-46
2021/05/02 03:15:59;;;;;;;0.50;0.20;;;22.20;34.90;;;;;;5011442;28;20097;-46
2021/05/02 03:18:43;;;;;;;1.13;0.20;;;22.20;34.90;;;;;;5011578;28;20037;-48
2021/05/02 03:21:12;;;;;;;1.10;0.10;;;22.20;34.90;;;;;;5010630;28;20133;-50
2021/05/02 03:23:45;;;;;;;0.30;0.20;;;22.10;34.90;;;;;;5011400;28;20092;-48
2021/05/02 03:26:12;;;;;;;0.30;0.10;;;22.10;34.90;;;;;;5010743;28;20029;-46
2021/05/02 03:28:47;;;;;;;0.40;0.15;;;22.10;34.90;;;;;;5018985;28;20387;-47
2021/05/02 03:31:15;;;;;;;0.40;0.10;;;22.10;34.90;;;;;;5011301;28;20483;-46
2021/05/02 03:33:47;;;;;;;0.25;0.10;;;22.10;34.90;;;;;;5011109;28;20034;-44
2021/05/02 03:36:16;;;;;;;0.47;0.10;;;22.10;34.90;;;;;;5011641;28;20057;-44
2021/05/02 03:38:51;;;;;;;0.30;0.10;;;22.10;34.90;;;;;;5011919;28;20410;-47
2021/05/02 03:41:18;;;;;;;0.60;0.13;;;22.10;34.90;;;;;;5011172;28;20080;-47
2021/05/02 03:43:44;;;;;;;0.57;0.20;;;22.10;34.90;;;;;;5010513;28;20539;-46
2021/05/02 03:46:25;;;;;;;0.25;0.10;;;22.10;34.90;;;;;;5010681;28;20109;-47
2021/05/02 03:48:58;;;;;;;0.30;0.10;;;22.10;34.90;;;;;;5010611;28;20030;-49
2021/05/02 03:51:29;;;;;;;0.40;0.20;;;22.10;34.90;;;;;;5009951;28;20643;-50
2021/05/02 03:53:56;;;;;;;1.38;0.20;;;22.10;34.90;;;;;;5009734;28;20030;-50
2021/05/02 03:56:28;;;;;;;0.55;0.13;;;22.10;34.90;;;;;;5011049;28;20101;-49
2021/05/02 03:59:02;;;;;;;0.77;0.20;;;22.10;34.90;;;;;;5011034;28;20022;-47
2021/05/02 04:01:27;;;;;;;0.40;0.20;;;22.00;34.90;;;;;;5009931;28;20061;-48
2021/05/02 04:03:53;;;;;;;0.70;0.20;;;22.00;34.90;;;;;;5010749;28;20111;-43
2021/05/02 04:06:18;;;;;;;0.50;0.20;;;22.10;35.40;;;;;;5011486;28;20022;-46
2021/05/02 04:08:44;;;;;;;0.30;0.10;;;22.00;35.40;;;;;;5012445;28;20034;-47
2021/05/02 04:11:10;;;;;;;1.05;0.22;;;22.00;34.90;;;;;;5010299;28;20032;-47
2021/05/02 04:13:35;;;;;;;0.50;0.10;;;22.00;34.90;;;;;;5009680;28;20017;-47
2021/05/02 04:16:01;;;;;;;0.40;0.10;;;22.00;34.90;;;;;;5009987;28;20026;-49
2021/05/02 04:18:31;;;;;;;0.70;0.20;;;22.00;34.90;;;;;;5010242;28;20080;-44
2021/05/02 04:20:56;;;;;;;0.82;0.20;;;22.00;34.90;;;;;;5012769;28;20029;-48
2021/05/02 04:23:22;;;;;;;0.55;0.10;;;22.00;34.80;;;;;;5014709;28;20030;-47
2021/05/02 04:25:47;;;;;;;0.40;0.10;;;22.00;34.90;;;;;;5013410;28;20036;-46
2021/05/02 04:28:13;;;;;;;0.30;0.10;;;22.00;34.80;;;;;;5013593;28;20120;-47
2021/05/02 04:30:39;;;;;;;0.52;0.17;;;22.00;34.80;;;;;;5010729;28;20093;-46
2021/05/02 04:33:04;;;;;;;0.65;0.10;;;22.00;34.90;;;;;;5010943;28;20034;-47
2021/05/02 04:35:30;;;;;;;0.57;0.20;;;22.00;34.90;;;;;;5009901;28;20372;-45
2021/05/02 04:37:55;;;;;;;0.47;0.20;;;22.00;34.90;;;;;;5010144;28;20057;-46
2021/05/02 04:40:21;;;;;;;0.50;0.10;;;22.00;34.80;;;;;;5010541;28;20152;-46
2021/05/02 04:42:46;;;;;;;0.85;0.20;;;22.00;34.80;;;;;;5009523;28;20041;-47
2021/05/02 04:45:12;;;;;;;0.47;0.20;;;22.00;34.90;;;;;;5010272;28;20057;-46
2021/05/02 04:47:38;;;;;;;0.40;0.10;;;21.90;35.30;;;;;;5008904;28;20046;-51
2021/05/02 04:50:04;;;;;;;0.30;0.10;;;21.90;34.80;;;;;;5010110;28;20062;-44
2021/05/02 04:52:29;;;;;;;0.75;0.15;;;22.00;34.80;;;;;;5010325;28;20026;-48
2021/05/02 04:54:55;;;;;;;0.38;0.10;;;21.90;34.80;;;;;;5009658;28;20041;-50
2021/05/02 04:57:21;;;;;;;0.90;0.20;;;21.90;34.80;;;;;;5008902;28;20036;-46
2021/05/02 04:59:46;;;;;;;0.30;0.10;;;21.90;34.80;;;;;;5007930;28;20097;-45
2021/05/02 05:02:12;;;;;;;0.40;0.10;;;21.90;34.80;;;;;;5010076;28;20072;-48
2021/05/02 05:04:37;;;;;;;0.40;0.10;;;21.90;34.80;;;;;;5009388;28;20036;-44
2021/05/02 05:07:03;;;;;;;1.25;0.15;;;21.90;34.80;;;;;;5008977;28;20065;-47
2021/05/02 05:09:28;;;;;;;1.10;0.10;;;21.90;34.80;;;;;;5009807;28;20026;-47
2021/05/02 05:11:54;;;;;;;0.20;0.10;;;21.90;34.80;;;;;;5008415;28;20064;-47
2021/05/02 05:14:20;;;;;;;0.30;0.10;;;21.90;34.80;;;;;;5008482;28;20018;-43
2021/05/02 05:16:45;;;;;;;2.13;0.17;;;21.90;34.80;;;;;;5008631;28;20873;-45
2021/05/02 05:19:11;;;;;;;0.40;0.10;;;21.90;34.80;;;;;;5009392;28;20048;-46
2021/05/02 05:21:36;;;;;;;0.95;0.20;;;21.90;34.80;;;;;;5009011;28;20053;-45
2021/05/02 05:24:02;;;;;;;0.40;0.10;;;21.90;34.80;;;;;;5008953;28;20052;-47
2021/05/02 05:26:28;;;;;;;0.25;0.10;;;21.90;34.80;;;;;;5009365;28;20034;-45
2021/05/02 05:28:54;;;;;;;0.70;0.10;;;21.90;34.80;;;;;;5009209;28;20021;-46
2021/05/02 05:31:19;;;;;;;0.80;0.10;;;21.90;34.80;;;;;;5013862;28;20053;-44
2021/05/02 05:33:45;;;;;;;0.30;0.10;;;21.90;34.80;;;;;;5009092;28;20403;-48
2021/05/02 05:36:10;;;;;;;0.35;0.10;;;21.90;34.80;;;;;;5008241;28;20029;-48
2021/05/02 05:38:36;;;;;;;0.47;0.20;;;21.90;34.80;;;;;;5009073;28;20098;-48
2021/05/02 05:41:01;;;;;;;0.30;0.10;;;21.90;34.80;;;;;;5009450;28;20064;-45
2021/05/02 05:43:27;;;;;;;0.40;0.20;;;21.90;34.80;;;;;;5009333;28;20036;-45
2021/05/02 05:45:54;;;;;;;0.40;0.10;;;21.90;34.80;;;;;;5008267;28;20515;-47
2021/05/02 05:48:20;;;;;;;0.28;0.10;;;21.80;34.70;;;;;;5007667;28;20033;-47
2021/05/02 05:50:48;;;;;;;0.40;0.10;;;21.80;34.80;;;;;;5007890;28;20041;-46
2021/05/02 05:53:17;;;;;;;0.30;0.10;;;21.80;34.70;;;;;;5008396;28;20510;-43
2021/05/02 05:55:43;;;;;;;0.40;0.10;;;21.80;34.70;;;;;;5008250;28;20072;-45
2021/05/02 05:58:09;;;;;;;0.55;0.10;;;21.80;34.70;;;;;;5008744;28;20064;-48
2021/05/02 06:00:34;;;;;;;0.20;0.10;;;21.80;34.70;;;;;;5008416;28;20034;-45
2021/05/02 06:03:00;;;;;;;0.35;0.10;;;21.80;34.80;;;;;;5010200;28;20164;-47
2021/05/02 06:05:25;;;;;;;0.28;0.10;;;21.80;34.70;;;;;;5010638;28;20033;-45
2021/05/02 06:07:51;;;;;;;0.30;0.10;;;21.80;34.70;;;;;;5007749;28;20058;-44
2021/05/02 06:10:16;;;;;;;0.60;0.10;;;21.80;34.70;;;;;;5009209;28;20033;-46
2021/05/02 06:12:42;;;;;;;0.35;0.10;;;21.80;34.60;;;;;;5007718;28;20748;-47
2021/05/02 06:15:10;;;;;;;0.30;0.10;;;21.80;35.20;;;;;;5008700;28;20056;-44
2021/05/02 06:17:36;;;;;;;0.30;0.10;;;21.80;34.70;;;;;;5007716;28;20513;-45
2021/05/02 06:20:02;;;;;;;0.50;0.10;;;21.80;34.70;;;;;;5009493;28;20038;-45
2021/05/02 06:22:27;;;;;;;0.73;0.17;;;21.80;34.80;;;;;;5007792;28;20491;-46
2021/05/02 06:24:53;;;;;;;0.30;0.10;;;21.80;34.80;;;;;;5008500;28;20060;-47
2021/05/02 06:27:18;;;;;;;0.60;0.20;;;21.80;34.80;;;;;;5008324;28;20157;-47
2021/05/02 06:29:44;;;;;;;0.95;0.20;;;21.80;34.80;;;;;;5008037;28;20030;-45
2021/05/02 06:32:10;;;;;;;0.57;0.10;;;21.80;34.80;;;;;;5008249;28;20026;-46
2021/05/02 06:34:36;;;;;;;0.73;0.10;;;21.80;34.80;;;;;;5007133;28;20383;-48
2021/05/02 06:37:01;;;;;;;0.52;0.13;;;21.80;34.80;;;;;;5008274;28;20696;-46
2021/05/02 06:39:28;;;;;;;0.30;0.10;;;21.80;34.80;;;;;;5008469;28;20064;-46
2021/05/02 06:41:54;;;;;;;0.50;0.10;;;21.80;34.80;;;;;;5008435;28;20038;-47
2021/05/02 06:44:20;;;;;;;1.05;0.10;;;21.80;34.80;;;;;;5008164;28;20030;-45
2021/05/02 06:46:46;;;;;;;1.10;0.10;;;21.80;34.70;;;;;;5007764;28;20053;-48
2021/05/02 06:49:12;;;;;;;5.00;0.20;;;21.80;34.70;;;;;;5009033;28;20029;-46
2021/05/02 06:51:38;;;;;;;0.40;0.10;;;21.80;34.70;;;;;;5007680;28;20450;-47
2021/05/02 06:54:05;;;;;;;1.10;0.20;;;21.80;34.70;;;;;;5008032;28;20390;-47
2021/05/02 06:56:31;;;;;;;0.73;0.20;;;21.80;34.60;;;;;;5008092;28;20057;-50
2021/05/02 06:58:57;;;;;;;0.60;0.10;;;21.80;34.50;;;;;;5008601;28;20030;-47
2021/05/02 07:01:23;;;;;;;0.30;0.10;;;21.80;34.60;;;;;;5012423;28;20025;-46
2021/05/02 07:03:49;;;;;;;6.40;0.20;;;21.80;34.70;;;;;;5011142;28;20026;-46
2021/05/02 07:06:15;;;;;;;0.75;0.13;;;21.80;34.70;;;;;;5011730;28;20825;-45
2021/05/02 07:08:41;;;;;;;0.40;0.10;;;21.80;34.60;;;;;;5011320;28;20034;-47
2021/05/02 07:11:06;;;;;;;0.40;0.13;;;21.80;34.70;;;;;;5011273;28;20060;-51
2021/05/02 07:13:32;;;;;;;0.40;0.10;;;21.80;34.60;;;;;;5011214;28;20029;-44
2021/05/02 07:16:01;;;;;;;0.65;0.10;;;21.80;34.60;;;;;;5011606;28;20024;-48
2021/05/02 07:18:32;;;;;;;0.98;0.10;;;21.80;34.70;;;;;;5011745;28;20507;-51
2021/05/02 07:20:58;;;;;;;0.65;0.10;;;21.80;34.70;;;;;;5010978;28;20442;-46
2021/05/02 07:23:23;;;;;;;0.35;0.10;;;21.80;34.70;;;;;;5011481;28;20034;-44
2021/05/02 07:25:49;;;;;;;0.52;0.10;;;21.80;34.70;;;;;;5011325;28;20037;-47
2021/05/02 07:28:14;;;;;;;1.67;0.15;;;21.80;34.70;;;;;;5009990;28;20022;-47
2021/05/02 07:30:40;;;;;;;0.70;0.10;;;21.80;34.70;;;;;;5021703;28;20033;-46
2021/05/02 07:33:06;;;;;;;0.73;0.10;;;21.80;34.70;;;;;;5011646;28;20030;-48
2021/05/02 07:35:31;;;;;;;0.70;0.10;;;21.80;34.70;;;;;;5010969;28;20104;-45
2021/05/02 07:37:57;;;;;;;1.88;0.10;;;21.80;34.70;;;;;;5066008;22;20436;-48
2021/05/02 07:40:23;;;;;;;0.60;0.20;;;21.80;34.70;;;;;;5044823;28;20125;-47
2021/05/02 07:42:49;;;;;;;0.25;0.10;;;21.90;34.70;;;;;;5052350;28;20522;-48
2021/05/02 07:45:14;;;;;;;0.30;0.10;;;21.90;34.70;;;;;;5052193;28;20028;-48
2021/05/02 07:47:40;;;;;;;0.75;0.10;;;21.80;34.60;;;;;;5051033;28;20452;-47
2021/05/02 07:50:07;;;;;;;0.80;0.20;;;21.90;34.60;;;;;;5052798;28;20032;-47
2021/05/02 07:52:33;;;;;;;0.70;0.10;;;21.90;34.60;;;;;;5051884;28;20030;-48
2021/05/02 07:54:59;;;;;;;0.47;0.20;;;21.90;34.60;;;;;;5050960;28;20094;-49
2021/05/02 07:57:25;;;;;;;0.65;0.20;;;21.90;34.60;;;;;;5056453;28;20032;-48
2021/05/02 07:59:50;;;;;;;0.70;0.20;;;21.90;34.60;;;;;;5051327;28;20092;-49
2021/05/02 08:02:18;;;;;;;0.60;0.20;;;21.90;34.60;;;;;;5052282;28;20029;-49
2021/05/02 08:04:47;;;;;;;0.55;0.10;;;21.90;34.60;;;;;;5052771;28;20040;-51
2021/05/02 08:07:12;;;;;;;0.65;0.10;;;21.90;34.60;;;;;;5050987;28;20086;-50
2021/05/02 08:09:38;;;;;;;1.25;0.17;;;21.90;34.60;;;;;;5046728;28;20037;-50
2021/05/02 08:12:04;;;;;;;0.65;0.15;;;21.90;34.60;;;;;;5046637;28;20033;-48
2021/05/02 08:14:30;;;;;;;0.70;0.20;;;21.90;35.10;;;;;;5047440;28;20041;-50
2021/05/02 08:16:56;;;;;;;0.55;0.10;;;21.90;34.60;;;;;;5042598;28;20065;-48
2021/05/02 08:19:22;;;;;;;4.20;0.30;;;21.90;34.60;;;;;;5053416;28;20056;-50
2021/05/02 08:21:48;;;;;;;0.98;0.22;;;21.90;34.60;;;;;;5048581;28;20036;-49
2021/05/02 08:24:14;;;;;;;0.50;0.17;;;21.90;34.50;;;;;;5057442;28;20035;-49
2021/05/02 08:26:40;;;;;;;0.77;0.10;;;21.90;34.50;;;;;;5056559;28;20494;-50
2021/05/02 08:29:06;;;;;;;0.60;0.20;;;21.90;34.50;;;;;;5060650;28;20056;-48
2021/05/02 08:31:32;;;;;;;0.85;0.20;;;21.90;34.50;;;;;;5042147;28;20029;-48
2021/05/02 08:33:58;;;;;;;1.35;0.13;;;21.90;34.50;;;;;;5040008;28;20666;-49
2021/05/02 08:36:23;;;;;;;1.00;0.17;;;21.90;34.50;;;;;;5048124;28;20066;-50
2021/05/02 08:38:49;;;;;;;0.52;0.20;;;21.90;34.60;;;;;;5038847;28;20033;-50
2021/05/02 08:41:15;;;;;;;1.35;0.38;;;21.90;34.60;;;;;;5035829;28;20033;-49
2021/05/02 08:43:41;;;;;;;0.95;0.10;;;21.90;34.60;;;;;;5046010;28;20070;-49
2021/05/02 08:46:09;;;;;;;0.80;0.20;;;21.90;34.50;;;;;;5042925;28;20022;-49
2021/05/02 08:48:35;;;;;;;0.30;0.15;;;21.90;34.40;;;;;;5046127;28;20105;-48
2021/05/02 08:51:01;;;;;;;0.52;0.20;;;22.00;34.40;;;;;;5041219;28;20034;-50
2021/05/02 08:53:27;;;;;;;2.45;0.17;;;22.00;34.40;;;;;;5037803;28;20041;-49
2021/05/02 08:55:54;;;;;;;0.40;0.13;;;21.90;34.40;;;;;;5044836;28;20045;-50
2021/05/02 08:58:22;;;;;;;0.70;0.17;;;22.00;34.40;;;;;;5055455;28;20024;-48
2021/05/02 09:00:51;;;;;;;0.40;0.20;;;21.90;34.40;;;;;;5060987;28;20025;-48
2021/05/02 09:03:17;;;;;;;0.77;0.20;;;21.90;34.50;;;;;;5041481;28;20032;-50
2021/05/02 09:05:43;;;;;;;0.68;0.20;;;21.90;34.50;;;;;;5041994;28;20481;-48
2021/05/02 09:08:10;;;;;;;0.57;0.20;;;21.90;34.50;;;;;;5044595;28;20037;-49
2021/05/02 09:10:36;;;;;;;1.40;0.50;;;21.90;34.50;;;;;;5046166;28;20493;-48
2021/05/02 09:13:04;;;;;;;0.50;0.20;;;21.90;34.50;;;;;;5041046;28;20064;-48
2021/05/02 09:15:30;;;;;;;0.60;0.20;;;21.90;34.50;;;;;;5045174;28;20038;-48
2021/05/02 09:18:16;;;;;;;0.65;0.20;;;21.90;34.50;;;;;;5050145;28;20028;-47
2021/05/02 09:20:51;;;;;;;0.43;0.10;;;21.90;34.40;;;;;;5041495;28;20108;-49
2021/05/02 09:23:18;;;;;;;0.47;0.13;;;22.00;34.40;;;;;;5057686;28;20052;-50
2021/05/02 09:25:54;;;;;;;0.50;0.10;;;22.00;34.90;;;;;;5052478;28;20025;-48
2021/05/02 09:28:54;;;;;;;1.10;0.20;;;22.00;34.30;;;;;;5056681;28;20104;-47
2021/05/02 09:31:25;;;;;;;0.68;0.20;;;22.10;34.30;;;;;;5037681;28;20470;-48
2021/05/02 09:33:52;;;;;;;0.70;0.20;;;22.10;34.30;;;;;;5044763;28;20029;-49
2021/05/02 09:36:20;;;;;;;0.20;0.10;;;22.10;34.20;;;;;;5045707;28;20025;-49
2021/05/02 09:38:46;;;;;;;0.57;0.20;;;22.10;34.30;;;;;;5048825;28;20044;-48
2021/05/02 09:41:14;;;;;;;0.60;0.28;;;22.10;34.30;;;;;;5043029;28;20041;-49
2021/05/02 09:43:51;;;;;;;0.32;0.20;;;22.10;34.40;;;;;;5043002;28;20163;-51
2021/05/02 09:46:33;;;;;;;0.88;0.20;;;22.10;34.40;;;;;;5046989;28;20071;-49
2021/05/02 09:49:12;;;;;;;0.43;0.10;;;22.10;34.40;;;;;;5042664;28;20025;-50
2021/05/02 09:51:44;;;;;;;0.30;0.10;;;22.10;34.30;;;;;;5031694;28;20029;-49
2021/05/02 09:54:11;;;;;;;;;;;22.10;34.30;;;;;;5036869;28;20032;-47
2021/05/02 09:56:42;;;;;;;0.32;0.10;;;22.10;34.30;;;;;;5045462;28;20397;-48
2021/05/02 09:59:24;;;;;;;0.40;0.10;;;22.10;34.30;;;;;;5044357;28;20060;-48
2021/05/02 10:02:11;;;;;;;0.20;0.10;;;22.10;34.40;;;;;;5042821;28;20025;-49
2021/05/02 10:04:50;;;;;;;0.30;0.10;;;22.10;34.40;;;;;;5054706;28;20545;-50
2021/05/02 10:07:18;;;;;;;0.98;0.10;;;22.10;34.40;;;;;;5049899;28;20045;-50
2021/05/02 10:09:44;;;;;;;0.40;0.17;;;22.00;34.90;;;;;;5041989;28;20052;-50
2021/05/02 10:12:12;;;;;;;0.55;0.20;;;22.00;34.40;;;;;;5042654;28;20032;-49
2021/05/02 10:14:38;;;;;;;0.43;0.20;;;22.00;34.50;;;;;;5048807;28;20100;-48
2021/05/02 10:17:04;;;;;;;0.60;0.30;;;22.00;34.50;;;;;;5031257;28;20034;-48
2021/05/02 10:19:30;;;;;;;0.45;0.10;;;22.00;34.50;;;;;;5042407;28;20063;-47
2021/05/02 10:21:56;;;;;;;0.80;0.20;;;22.00;34.50;;;;;;5047938;28;20068;-48
2021/05/02 10:24:23;;;;;;;0.85;0.10;;;22.00;34.50;;;;;;5036808;28;20040;-49
2021/05/02 10:26:53;;;;;;;0.75;0.20;;;22.00;34.50;;;;;;5045444;28;20033;-50
2021/05/02 10:29:23;;;;;;;0.85;0.10;;;22.00;34.50;;;;;;5059037;28;20113;-48
2021/05/02 10:31:51;;;;;;;0.50;0.20;;;22.00;34.50;;;;;;5051014;28;20021;-49
2021/05/02 10:34:34;;;;;;;0.57;0.10;;;22.00;34.50;;;;;;5039750;28;20037;-47
2021/05/02 10:37:22;;;;;;;0.52;0.10;;;22.00;34.40;;;;;;5053185;28;20051;-51
2021/05/02 10:40:19;;;;;;;1.23;0.20;;;22.00;34.40;;;;;;5048106;28;20025;-50
2021/05/02 10:42:55;;;;;;;1.05;0.17;;;22.00;34.40;;;;;;5052216;28;20129;-50
2021/05/02 10:45:30;;;;;;;0.50;0.17;;;22.00;34.40;;;;;;5056249;28;20029;-48
2021/05/02 10:47:57;;;;;;;0.57;0.20;;;22.00;34.40;;;;;;5050051;28;20083;-48
2021/05/02 10:50:48;;;;;;;1.30;0.15;;;22.00;34.40;;;;;;5047268;28;20104;-47
2021/05/02 10:53:15;;;;;;;0.73;0.20;;;22.00;34.40;;;;;;5042892;28;20501;-47
2021/05/02 10:55:55;;;;;;;0.60;0.20;;;22.00;34.50;;;;;;5042033;28;20029;-46
2021/05/02 10:58:30;;;;;;;0.80;0.10;;;22.00;34.40;;;;;;5040597;28;20041;-48
2021/05/02 11:01:04;;;;;;;0.57;0.10;;;22.00;34.40;;;;;;5050426;28;20537;-48
2021/05/02 11:03:38;;;;;;;0.82;0.25;;;22.00;34.40;;;;;;5048883;28;20039;-46
2021/05/02 11:06:15;;;;;;;0.10;0.10;;;22.00;34.40;;;;;;5040391;28;20485;-50
2021/05/02 11:08:46;;;;;;;0.52;0.13;;;22.00;34.40;;;;;;5052275;28;20044;-48
2021/05/02 11:11:30;;;;;;;0.28;0.10;;;22.00;34.40;;;;;;5048348;28;20033;-51
2021/05/02 11:14:08;;;;;;;3.38;0.25;;;22.00;34.40;;;;;;5058841;28;20055;-51
2021/05/02 11:16:34;;;;;;;1.33;0.20;;;22.00;34.50;;;;;;5052438;28;20060;-51
2021/05/02 11:19:00;;;;;;;0.60;0.10;;;22.00;34.50;;;;;;5046184;28;20167;-50
2021/05/02 11:21:26;;;;;;;0.73;0.17;;;22.00;34.30;;;;;;5051068;28;20033;-50
2021/05/02 11:24:00;;;;;;;0.43;0.10;;;22.00;34.40;;;;;;5047572;28;20037;-48
2021/05/02 11:26:51;;;;;;;2.03;0.22;;;22.00;34.40;;;;;;5052197;28;20033;-48
2021/05/02 11:29:20;;;;;;;0.57;0.10;;;22.00;34.40;;;;;;5049706;28;20033;-45
2021/05/02 11:31:46;;;;;;;0.40;0.20;;;22.00;34.40;;;;;;5052722;28;20025;-47
2021/05/02 11:34:11;;;;;;;0.50;0.10;;;22.00;34.40;;;;;;5037495;28;20063;-47
2021/05/02 11:36:42;;;;;;;0.40;0.10;;;22.00;34.40;;;;;;5047742;28;20032;-48
2021/05/02 11:39:29;;;;;;;0.40;0.10;;;22.00;34.40;;;;;;5045147;28;20041;-50
2021/05/02 11:42:03;;;;;;;0.75;0.20;;;22.00;34.40;;;;;;5047133;28;20040;-51
2021/05/02 11:44:29;;;;;;;0.43;0.20;;;22.00;34.40;;;;;;5047372;28;20579;-51
2021/05/02 11:46:55;;;;;;;0.90;0.10;;;22.00;34.40;;;;;;5032539;28;20041;-47
2021/05/02 11:49:21;;;;;;;0.60;0.17;;;22.00;34.40;;;;;;5041861;28;20029;-46
2021/05/02 11:51:56;;;;;;;0.47;0.10;;;22.00;34.40;;;;;;5060270;28;20095;-49
2021/05/02 11:54:22;;;;;;;0.65;0.10;;;22.00;34.40;;;;;;5045364;28;20094;-48
2021/05/02 11:56:51;;;;;;;0.50;0.15;;;22.00;34.40;;;;;;5048463;28;20033;-49
2021/05/02 11:59:17;;;;;;;0.68;0.20;;;22.00;34.40;;;;;;5048543;28;20021;-48
2021/05/02 12:01:46;;;;;;;0.77;0.20;;;22.00;34.40;;;;;;5048789;28;21050;-51
2021/05/02 12:04:14;;;;;;;1.80;0.20;;;22.00;34.40;;;;;;5043696;28;20035;-50
2021/05/02 12:06:41;;;;;;;0.85;0.10;;;22.10;34.60;;;;;;5052258;28;20090;-49
2021/05/02 12:09:15;;;;;;;1.73;0.20;;;22.20;34.60;;;;;;5047235;28;20108;-51
2021/05/02 12:11:42;;;;;;;2.78;0.10;;;22.10;34.70;;;;;;5043540;28;20032;-50
2021/05/02 12:14:16;;;;;;;1.23;0.20;;;22.10;34.70;;;;;;5042151;28;20017;-50
2021/05/02 12:16:44;;;;;;;3.25;0.40;;;22.00;34.70;;;;;;5055860;28;20021;-50
2021/05/02 12:19:10;;;;;;;1.40;0.22;;;22.00;34.70;;;;;;5047686;28;20036;-50
2021/05/02 12:21:47;;;;;;;2.15;0.35;;;22.00;34.70;;;;;;5051597;28;20025;-51
2021/05/02 12:24:23;;;;;;;3.08;0.20;;;22.00;34.70;;;;;;5045078;28;20021;-50
2021/05/02 12:27:06;;;;;;;2.83;0.20;;;22.00;34.60;;;;;;5052857;28;20476;-50
2021/05/02 12:29:36;;;;;;;1.30;0.25;;;22.00;34.60;;;;;;5040105;28;20039;-50
2021/05/02 12:32:10;;;;;;;1.70;0.10;;;22.00;34.60;;;;;;5033753;28;20482;-50
2021/05/02 12:34:38;;;;;;;2.80;0.30;;;22.00;34.60;;;;;;5039641;28;20035;-49
2021/05/02 12:37:15;;;;;;;2.95;0.10;;;22.00;34.70;;;;;;5046425;28;20101;-48
2021/05/02 12:39:42;;;;;;;1.05;0.15;;;22.00;34.60;;;;;;5048661;28;20487;-50
2021/05/02 12:42:09;;;;;;;0.68;0.20;;;22.00;34.60;;;;;;5036896;28;20108;-50
2021/05/02 12:44:36;;;;;;;2.28;0.22;;;22.00;34.60;;;;;;5055787;28;20035;-49
2021/05/02 12:47:24;;;;;;;4.70;0.57;;;22.00;34.60;;;;;;5048093;28;20025;-50
2021/05/02 12:50:04;;;;;;;1.67;0.13;;;22.00;34.60;;;;;;5044970;28;20033;-49
2021/05/02 12:52:34;;;;;;;1.10;0.30;;;22.00;34.60;;;;;;5053850;28;20021;-51
2021/05/02 12:55:20;;;;;;;0.52;0.20;;;22.00;34.60;;;;;;5043196;28;20473;-50
2021/05/02 12:57:54;;;;;;;2.95;0.20;;;22.00;34.60;;;;;;5058214;28;20033;-51